Time;durP1;ratioP1;P1;durP2;ratioP2;P2;SDS_P1;SDS_P2;PMS_P1;PMS_P2;Temp;Humidity;BMP_temperature;BMP_pressure;BME280_temperature;BME280_humidity;BME280_pressure;Samples;Min_cycle;Max_cycle;Signal;HPM_P1;HPM_P2
2023/09/01 00:00:46;;;;;;;23.23;8.93;;;;;;;15.82;100.00;99002.19;5158361;27;20198;-59
2023/09/01 00:03:13;;;;;;;12.70;7.03;;;;;;;15.79;100.00;98994.69;5157412;27;20054;-61
2023/09/01 00:05:39;;;;;;;19.77;13.05;;;;;;;15.73;100.00;98999.88;5158184;27;20095;-59
2023/09/01 00:08:05;;;;;;;25.58;15.55;;;;;;;15.71;100.00;98982.13;5157814;27;20050;-59
2023/09/01 00:10:35;;;;;;;21.98;15.27;;;;;;;15.68;100.00;98980.94;5158301;27;20138;-60
2023/09/01 00:13:02;;;;;;;28.77;8.93;;;;;;;15.71;100.00;98982.91;5157722;27;20104;-59
2023/09/01 00:15:28;;;;;;;18.30;8.25;;;;;;;15.66;100.00;98986.09;5158022;27;20082;-60
2023/09/01 00:17:54;;;;;;;24.33;9.13;;;;;;;15.71;100.00;98985.66;5158021;27;20392;-61
2023/09/01 00:20:20;;;;;;;18.90;8.57;;;;;;;15.59;100.00;98990.84;5157859;27;20074;-60
2023/09/01 00:22:46;;;;;;;19.75;9.57;;;;;;;15.63;100.00;98967.53;5158101;27;20187;-59
2023/09/01 00:25:12;;;;;;;27.67;10.68;;;;;;;15.62;100.00;98973.44;5157724;27;20055;-59
2023/09/01 00:27:38;;;;;;;18.08;9.27;;;;;;;15.60;100.00;98970.31;5157861;27;20546;-59
2023/09/01 00:30:05;;;;;;;19.27;7.95;;;;;;;15.61;100.00;98980.19;5157799;27;20130;-58
2023/09/01 00:32:31;;;;;;;19.50;8.73;;;;;;;15.62;100.00;98973.44;5157962;27;20043;-59
2023/09/01 00:34:58;;;;;;;22.65;10.05;;;;;;;15.48;100.00;98979.84;5157559;27;20411;-60
2023/09/01 00:37:24;;;;;;;21.08;8.88;;;;;;;15.58;100.00;98973.47;5157933;27;20203;-61
2023/09/01 00:39:50;;;;;;;15.68;9.30;;;;;;;15.56;100.00;98978.63;5157423;27;20047;-59
2023/09/01 00:42:16;;;;;;;20.80;10.32;;;;;;;15.56;100.00;98980.59;5157882;27;20073;-58
2023/09/01 00:44:43;;;;;;;20.10;8.63;;;;;;;15.56;100.00;98989.69;5157520;27;20137;-61
2023/09/01 00:47:09;;;;;;;29.63;11.32;;;;;;;15.57;100.00;98990.47;5157639;27;20138;-60
2023/09/01 00:49:36;;;;;;;32.33;20.55;;;;;;;15.49;100.00;98984.16;5157671;27;20134;-61
2023/09/01 00:52:02;;;;;;;25.80;16.75;;;;;;;15.45;100.00;98983.41;5157512;27;20051;-61
2023/09/01 00:54:28;;;;;;;18.40;9.88;;;;;;;15.49;100.00;98984.97;5157656;27;20153;-60
2023/09/01 00:56:54;;;;;;;20.00;9.80;;;;;;;15.45;100.00;98986.94;5157395;27;20475;-58
2023/09/01 00:59:20;;;;;;;27.98;13.02;;;;;;;15.46;100.00;98994.06;5157631;27;20054;-60
2023/09/01 01:01:49;;;;;;;24.25;11.63;;;;;;;15.44;100.00;98995.66;5157313;27;20051;-59
2023/09/01 01:04:15;;;;;;;23.45;11.15;;;;;;;15.42;100.00;98992.50;5157540;27;20319;-59
2023/09/01 01:06:50;;;;;;;28.05;12.18;;;;;;;15.31;100.00;98975.97;5157241;27;20078;-61
2023/09/01 01:09:28;;;;;;;38.28;13.15;;;;;;;15.34;100.00;98969.66;5157510;27;20047;-59
2023/09/01 01:12:06;;;;;;;37.38;14.77;;;;;;;15.43;100.00;98966.47;5157344;27;20047;-58
2023/09/01 01:14:39;;;;;;;28.45;12.27;;;;;;;15.35;100.00;98976.75;5157024;27;20145;-58
2023/09/01 01:17:07;;;;;;;28.23;12.15;;;;;;;15.30;100.00;98975.19;5160346;27;20053;-59
2023/09/01 01:19:45;;;;;;;24.67;13.40;;;;;;;15.33;100.00;98984.66;5160712;27;20153;-61
2023/09/01 01:22:12;;;;;;;37.97;14.57;;;;;;;15.35;100.00;98984.25;5160997;27;20050;-60
2023/09/01 01:24:39;;;;;;;32.80;13.10;;;;;;;15.34;100.00;98983.47;5160463;27;20134;-60
2023/09/01 01:27:04;;;;;;;39.20;14.02;;;;;;;15.30;100.00;98986.25;5160841;27;20061;-59
2023/09/01 01:29:30;;;;;;;31.42;13.50;;;;;;;15.26;100.00;98988.25;5160379;27;20058;-60
2023/09/01 01:31:57;;;;;;;31.15;13.02;;;;;;;15.30;100.00;98990.97;5160554;27;20051;-61
2023/09/01 01:34:29;;;;;;;41.85;16.20;;;;;;;15.27;100.00;98986.25;5160273;27;20054;-60
2023/09/01 01:37:02;;;;;;;49.97;17.88;;;;;;;15.23;100.00;98977.22;5160461;27;20047;-62
2023/09/01 01:39:33;;;;;;;45.38;15.88;;;;;;;15.17;100.00;98976.03;5160291;27;20434;-59
2023/09/01 01:42:05;;;;;;;40.63;16.38;;;;;;;15.20;100.00;98969.72;5160261;27;20332;-58
2023/09/01 01:44:35;;;;;;;43.03;17.23;;;;;;;15.09;100.00;98980.78;5160260;27;20055;-60
2023/09/01 01:47:02;;;;;;;55.90;18.23;;;;;;;15.10;100.00;98976.84;5160143;27;20051;-60
2023/09/01 01:49:28;;;;;;;38.13;15.88;;;;;;;15.06;100.00;98971.34;5160465;27;20464;-58
2023/09/01 01:51:54;;;;;;;42.97;17.05;;;;;;;15.11;100.00;98978.41;5159939;27;20100;-59
2023/09/01 01:54:20;;;;;;;37.67;15.63;;;;;;;15.07;100.00;98989.47;5160411;27;20061;-59
2023/09/01 01:56:46;;;;;;;34.47;16.00;;;;;;;15.07;100.00;98994.22;5160156;27;20328;-56
2023/09/01 01:59:13;;;;;;;37.10;15.82;;;;;;;15.04;100.00;99000.53;5160135;27;20374;-58
2023/09/01 02:01:38;;;;;;;43.65;15.77;;;;;;;15.03;100.00;98997.00;5160129;27;20134;-58
2023/09/01 02:04:05;;;;;;;41.08;16.27;;;;;;;14.95;100.00;98995.41;5159930;27;20065;-59
2023/09/01 02:06:31;;;;;;;37.80;15.52;;;;;;;14.98;100.00;98994.63;5160044;27;20051;-61
2023/09/01 02:08:57;;;;;;;33.33;14.85;;;;;;;14.94;100.00;99004.09;5159730;27;20351;-61
2023/09/01 02:11:23;;;;;;;42.60;16.60;;;;;;;14.96;100.00;99010.00;5160065;27;20050;-57
2023/09/01 02:13:48;;;;;;;38.95;15.95;;;;;;;14.91;100.00;99005.69;5159616;27;20427;-59
2023/09/01 02:16:15;;;;;;;40.17;15.77;;;;;;;14.93;100.00;99005.31;5160064;27;20057;-57
2023/09/01 02:18:41;;;;;;;45.10;16.13;;;;;;;14.91;100.00;99011.22;5159655;27;20050;-58
2023/09/01 02:21:07;;;;;;;45.72;16.52;;;;;;;14.95;100.00;99005.69;5160023;27;20133;-60
2023/09/01 02:23:33;;;;;;;39.78;18.27;;;;;;;14.85;100.00;99010.03;5159358;27;20437;-59
2023/09/01 02:25:59;;;;;;;38.78;17.45;;;;;;;14.83;100.00;99012.41;5159125;27;20145;-60
2023/09/01 02:28:25;;;;;;;42.88;15.63;;;;;;;14.82;100.00;99011.59;5159697;27;20095;-57
2023/09/01 02:30:51;;;;;;;44.45;17.45;;;;;;;14.78;100.00;99008.06;5159330;27;20062;-61
2023/09/01 02:33:18;;;;;;;54.85;20.45;;;;;;;14.74;100.00;99006.50;5159630;27;20099;-61
2023/09/01 02:35:45;;;;;;;79.03;42.65;;;;;;;14.78;100.00;99007.28;5159301;27;20464;-59
2023/09/01 02:38:11;;;;;;;58.22;26.73;;;;;;;14.71;100.00;99012.81;5159610;27;20399;-59
2023/09/01 02:40:37;;;;;;;60.03;24.50;;;;;;;14.71;100.00;99016.38;5159330;27;20057;-58
2023/09/01 02:43:03;;;;;;;63.10;24.60;;;;;;;14.66;100.00;99015.97;5159237;27;20358;-59
2023/09/01 02:45:29;;;;;;;58.67;24.27;;;;;;;14.62;100.00;99012.44;5159081;27;20050;-56
2023/09/01 02:47:56;;;;;;;61.75;26.02;;;;;;;14.49;100.00;99014.78;5159486;27;20490;-60
2023/09/01 02:50:23;;;;;;;76.57;45.50;;;;;;;14.46;100.00;99010.84;5159094;27;20043;-58
2023/09/01 02:52:49;;;;;;;68.38;28.85;;;;;;;14.59;100.00;99006.53;5159477;27;20047;-58
2023/09/01 02:55:17;;;;;;;67.25;25.77;;;;;;;14.57;100.00;99011.66;5159192;27;20056;-60
2023/09/01 02:57:43;;;;;;;68.45;29.77;;;;;;;14.62;100.00;99017.94;5159076;27;20483;-62
2023/09/01 03:00:18;;;;;;;63.88;28.95;;;;;;;14.62;100.00;99015.97;5159191;27;20050;-58
2023/09/01 03:02:45;;;;;;;59.92;27.52;;;;;;;14.61;100.00;99030.97;5159008;27;20057;-58
2023/09/01 03:05:11;;;;;;;64.15;28.35;;;;;;;14.61;100.00;99033.72;5158958;27;20051;-60
2023/09/01 03:07:39;;;;;;;70.15;30.45;;;;;;;14.55;100.00;99027.00;5158789;27;20054;-60
2023/09/01 03:10:07;;;;;;;83.72;31.10;;;;;;;14.53;100.00;99032.94;5159066;27;20051;-60
2023/09/01 03:12:34;;;;;;;76.25;31.73;;;;;;;14.53;100.00;99043.97;5158724;27;20060;-60
2023/09/01 03:15:00;;;;;;;72.25;32.85;;;;;;;14.48;100.00;99027.78;5159095;27;20047;-59
2023/09/01 03:17:25;;;;;;;75.22;30.85;;;;;;;14.47;100.00;99034.47;5158648;27;20137;-60
2023/09/01 03:19:51;;;;;;;71.38;31.88;;;;;;;14.53;100.00;99032.16;5159049;27;20062;-60
2023/09/01 03:22:17;;;;;;;74.72;31.33;;;;;;;14.49;100.00;99040.38;5158484;27;20502;-60
2023/09/01 03:24:44;;;;;;;71.40;29.50;;;;;;;14.52;100.00;99039.63;5158403;27;20137;-60
2023/09/01 03:27:10;;;;;;;76.07;28.73;;;;;;;14.58;100.00;99040.81;5158776;27;20042;-60
2023/09/01 03:29:36;;;;;;;69.72;29.45;;;;;;;14.63;100.00;99042.41;5158642;27;20141;-58
2023/09/01 03:32:02;;;;;;;77.20;30.35;;;;;;;14.71;100.00;99037.66;5158688;27;20325;-59
2023/09/01 03:34:30;;;;;;;75.07;32.17;;;;;;;14.72;100.00;99044.75;5158489;27;20343;-60
2023/09/01 03:36:56;;;;;;;69.70;29.30;;;;;;;14.75;100.00;99043.94;5158710;27;20134;-60
2023/09/01 03:39:22;;;;;;;69.45;31.48;;;;;;;14.70;100.00;99047.91;5157339;27;20340;-58
2023/09/01 03:41:49;;;;;;;75.45;33.08;;;;;;;14.74;100.00;99047.91;5158564;27;20082;-55
2023/09/01 03:44:15;;;;;;;82.93;31.42;;;;;;;14.72;100.00;99062.06;5158150;27;20061;-58
2023/09/01 03:46:40;;;;;;;69.03;29.83;;;;;;;14.70;100.00;99067.22;5158666;27;20130;-59
2023/09/01 03:49:06;;;;;;;97.80;55.78;;;;;;;14.69;100.00;99071.16;5158094;27;20042;-58
2023/09/01 03:51:32;;;;;;;69.72;30.75;;;;;;;14.76;100.00;99067.59;5158360;27;20082;-58
2023/09/01 03:53:58;;;;;;;74.93;31.58;;;;;;;14.73;100.00;99074.72;5158034;27;20439;-58
2023/09/01 03:56:24;;;;;;;66.70;30.33;;;;;;;14.83;100.00;99075.91;5158263;27;20103;-58
2023/09/01 03:58:51;;;;;;;73.80;30.02;;;;;;;14.82;100.00;99082.56;5158296;27;20046;-60
2023/09/01 04:01:17;;;;;;;63.80;28.65;;;;;;;14.90;100.00;99073.13;5157992;27;20142;-59
2023/09/01 04:03:45;;;;;;;61.83;29.13;;;;;;;14.89;100.00;99087.31;5158308;27;20179;-60
2023/09/01 04:06:11;;;;;;;55.85;28.23;;;;;;;15.01;100.00;99095.19;5157902;27;20483;-59
2023/09/01 04:08:37;;;;;;;62.03;27.33;;;;;;;15.09;100.00;99101.47;5158130;27;20050;-60
2023/09/01 04:11:04;;;;;;;59.80;28.38;;;;;;;15.15;100.00;99108.19;5157946;27;20340;-58
2023/09/01 04:13:30;;;;;;;59.30;25.98;;;;;;;15.17;100.00;99101.09;5158295;27;20085;-59
2023/09/01 04:15:56;;;;;;;63.33;26.58;;;;;;;15.31;100.00;99108.53;5157776;27;20411;-59
2023/09/01 04:18:22;;;;;;;52.55;25.85;;;;;;;15.42;100.00;99116.81;5158186;27;20082;-59
2023/09/01 04:20:48;;;;;;;77.80;26.90;;;;;;;15.46;100.00;99125.88;5157572;27;20053;-59
2023/09/01 04:23:14;;;;;;;55.38;39.15;;;;;;;15.49;100.00;99136.13;5157638;27;20203;-61
2023/09/01 04:25:40;;;;;;;66.40;41.53;;;;;;;15.58;100.00;99136.50;5157828;27;20054;-60
2023/09/01 04:28:06;;;;;;;44.88;21.73;;;;;;;15.62;100.00;99136.47;5157988;27;20084;-59
2023/09/01 04:30:32;;;;;;;41.40;20.70;;;;;;;15.68;100.00;99137.69;5157645;27;20415;-59
2023/09/01 04:32:58;;;;;;;41.45;21.85;;;;;;;15.68;100.00;99151.50;5157469;27;20055;-58
2023/09/01 04:35:24;;;;;;;45.80;20.63;;;;;;;15.75;100.00;99151.47;5157905;27;20061;-59
2023/09/01 04:37:50;;;;;;;43.20;20.58;;;;;;;15.81;100.00;99151.88;5157355;27;20099;-59
2023/09/01 04:40:16;;;;;;;43.78;20.85;;;;;;;15.94;100.00;99162.06;5157817;27;20135;-58
2023/09/01 04:42:42;;;;;;;30.40;18.02;;;;;;;15.92;100.00;99175.50;5157363;27;20137;-60
2023/09/01 04:45:09;;;;;;;37.28;19.13;;;;;;;16.00;100.00;99181.81;5157524;27;20137;-60
2023/09/01 04:47:35;;;;;;;40.58;19.85;;;;;;;16.10;100.00;99185.72;5157188;27;20082;-60
2023/09/01 04:50:02;;;;;;;44.03;18.98;;;;;;;16.11;100.00;99203.88;5158997;27;20056;-61
2023/09/01 04:52:28;;;;;;;30.40;16.70;;;;;;;16.17;100.00;99216.13;5161234;27;20046;-60
2023/09/01 04:54:54;;;;;;;33.58;16.70;;;;;;;16.22;100.00;99224.75;5161225;27;20057;-60
2023/09/01 04:57:20;;;;;;;32.97;16.38;;;;;;;16.36;100.00;99235.00;5160823;27;20046;-61
2023/09/01 04:59:46;;;;;;;35.00;16.25;;;;;;;16.41;100.00;99261.47;5160889;27;20054;-59
2023/09/01 05:02:12;;;;;;;33.58;13.77;;;;;;;16.55;100.00;99255.84;5160919;27;20138;-61
2023/09/01 05:04:38;;;;;;;27.17;14.13;;;;;;;16.80;100.00;99274.34;5160721;27;20138;-61
2023/09/01 05:07:05;;;;;;;22.33;14.10;;;;;;;17.06;100.00;99295.97;5160989;27;20106;-59
2023/09/01 05:09:30;;;;;;;19.85;12.70;;;;;;;17.45;100.00;99319.81;5160587;27;20131;-62
2023/09/01 05:11:56;;;;;;;28.42;13.80;;;;;;;18.38;100.00;99301.53;5160938;27;20042;-62
2023/09/01 05:14:22;;;;;;;15.50;9.38;;;;;;;19.09;100.00;99139.47;5160514;27;20061;-59
2023/09/01 05:16:48;;;;;;;18.30;10.95;;;;;;;19.60;100.00;98745.31;5160880;27;20043;-58
2023/09/01 05:19:15;;;;;;;19.98;10.05;;;;;;;20.11;100.00;98442.25;5160336;27;20046;-61
2023/09/01 05:21:41;;;;;;;14.13;9.55;;;;;;;20.14;100.00;98241.03;5160377;27;20443;-62
2023/09/01 05:24:08;;;;;;;13.63;8.63;;;;;;;20.02;100.00;98202.88;5160151;27;20051;-61
2023/09/01 05:26:34;;;;;;;8.60;6.25;;;;;;;20.37;100.00;98074.81;5160287;27;20178;-60
2023/09/01 05:29:00;;;;;;;10.43;5.65;;;;;;;20.22;100.00;97977.94;5160592;27;20099;-62
2023/09/01 05:31:26;;;;;;;11.15;4.95;;;;;;;20.27;100.00;97945.97;5160334;27;20058;-60
2023/09/01 05:33:52;;;;;;;7.05;4.93;;;;;;;20.46;100.00;97932.88;5160597;27;20480;-60
2023/09/01 05:36:18;;;;;;;6.00;4.72;;;;;;;21.33;100.00;97909.19;5160047;27;20090;-62
2023/09/01 05:38:44;;;;;;;10.35;4.47;;;;;;;21.74;100.00;97945.19;5160430;27;20095;-63
2023/09/01 05:41:13;;;;;;;5.88;4.20;;;;;;;22.03;100.00;98025.56;5160041;27;20099;-64
2023/09/01 05:43:38;;;;;;;5.68;4.55;;;;;;;22.51;100.00;98140.19;5160350;27;20359;-65
2023/09/01 05:46:04;;;;;;;5.88;4.13;;;;;;;23.13;100.00;98192.75;5159865;27;20141;-62
2023/09/01 05:48:30;;;;;;;7.45;4.18;;;;;;;23.09;100.00;98286.41;5160224;27;20078;-63
2023/09/01 05:50:56;;;;;;;6.88;3.60;;;;;;;23.91;100.00;98377.63;5160220;27;20095;-63
2023/09/01 05:53:22;;;;;;;5.15;3.63;;;;;;;23.82;100.00;98350.44;5160181;27;20397;-56
2023/09/01 05:55:48;;;;;;;8.40;3.88;;;;;;;24.30;100.00;98383.31;5159588;27;20082;-63
2023/09/01 05:58:15;;;;;;;5.03;4.47;;;;;;;24.43;100.00;98473.50;5159838;27;20046;-61
2023/09/01 06:00:41;;;;;;;3.40;3.10;;;;;;;24.38;100.00;98466.50;5159591;27;20047;-62
2023/09/01 06:03:07;;;;;;;4.30;3.53;;;;;;;24.42;100.00;98509.16;5159402;27;20284;-61
2023/09/01 06:05:33;;;;;;;4.25;3.30;;;;;;;24.40;100.00;98500.44;5159875;27;20399;-62
2023/09/01 06:07:59;;;;;;;3.92;3.60;;;;;;;24.61;100.00;98504.22;5159629;27;20043;-60
2023/09/01 06:10:24;;;;;;;4.43;4.10;;;;;;;24.79;100.00;98524.97;5159992;27;20129;-62
2023/09/01 06:12:50;;;;;;;4.55;3.20;;;;;;;24.86;100.00;98533.03;5159343;27;20437;-63
2023/09/01 06:15:17;;;;;;;4.60;3.28;;;;;;;24.91;100.00;98540.78;5160007;27;20061;-64
2023/09/01 06:17:43;;;;;;;4.90;3.90;;;;;;;25.04;100.00;98548.94;5159312;27;20047;-64
2023/09/01 06:20:10;;;;;;;4.05;3.17;;;;;;;24.98;100.00;98546.00;5159608;27;20051;-64
2023/09/01 06:22:36;;;;;;;4.03;3.42;;;;;;;25.46;100.00;98578.88;5159538;27;20142;-61
2023/09/01 06:25:03;;;;;;;3.78;3.47;;;;;;;25.29;100.00;98578.53;5159453;27;20305;-64
2023/09/01 06:27:29;;;;;;;6.50;4.22;;;;;;;25.54;100.00;98578.03;5159236;27;20422;-62
2023/09/01 06:29:56;;;;;;;5.38;4.15;;;;;;;25.85;100.00;98582.44;5159324;27;20099;-64
2023/09/01 06:32:23;;;;;;;3.55;3.25;;;;;;;26.00;100.00;98614.13;5159625;27;20050;-65
2023/09/01 06:34:49;;;;;;;4.68;3.45;;;;;;;25.92;100.00;98621.38;5159253;27;20061;-62
2023/09/01 06:37:15;;;;;;;3.40;3.10;;;;;;;26.41;100.00;98631.16;5159344;27;20051;-60
2023/09/01 06:39:41;;;;;;;4.32;3.20;;;;;;;26.42;100.00;98643.94;5158934;27;20053;-62
2023/09/01 06:42:07;;;;;;;4.60;3.42;;;;;;;26.12;100.00;98640.34;5159515;27;20047;-63
2023/09/01 06:44:33;;;;;;;4.18;2.80;;;;;;;25.70;100.00;98637.78;5158917;27;20412;-62
2023/09/01 06:46:59;;;;;;;3.63;3.33;;;;;;;26.08;100.00;98636.19;5159455;27;20075;-62
2023/09/01 06:49:25;;;;;;;4.22;3.00;;;;;;;25.91;100.00;98653.53;5159236;27;20048;-61
2023/09/01 06:51:51;;;;;;;3.30;3.00;;;;;;;25.80;100.00;98654.09;5158883;27;20153;-63
2023/09/01 06:54:17;;;;;;;3.60;3.20;;;;;;;25.68;100.00;98645.91;5158913;27;20090;-62
2023/09/01 06:56:43;;;;;;;3.63;3.33;;;;;;;25.81;100.00;98650.03;5158800;27;20079;-60
2023/09/01 06:59:09;;;;;;;3.20;2.92;;;;;;;26.04;100.00;98644.81;5158979;27;20057;-61
2023/09/01 07:01:35;;;;;;;4.75;3.15;;;;;;;26.27;100.00;98641.16;5158743;27;20078;-61
2023/09/01 07:04:03;;;;;;;2.85;2.60;;;;;;;26.54;100.00;98658.22;5158825;27;20046;-62
2023/09/01 07:06:29;;;;;;;3.58;3.15;;;;;;;26.40;100.00;98665.38;5158512;27;20435;-65
2023/09/01 07:08:55;;;;;;;3.75;3.13;;;;;;;26.33;100.00;98660.91;5158905;27;20133;-62
2023/09/01 07:11:21;;;;;;;4.18;3.13;;;;;;;26.34;100.00;98664.50;5158552;27;20097;-61
2023/09/01 07:13:47;;;;;;;3.03;2.80;;;;;;;26.57;100.00;98680.50;5158863;27;20051;-65
2023/09/01 07:16:13;;;;;;;4.85;2.88;;;;;;;26.34;100.00;98664.50;5158359;27;20057;-65
2023/09/01 07:18:39;;;;;;;4.57;2.97;;;;;;;26.31;100.00;98671.84;5158613;27;20054;-64
2023/09/01 07:21:05;;;;;;;4.80;2.75;;;;;;;26.52;100.00;98673.53;5158350;27;20054;-63
2023/09/01 07:23:32;;;;;;;3.60;2.70;;;;;;;26.63;100.00;98683.44;5158488;27;20429;-62
2023/09/01 07:25:59;;;;;;;3.63;2.40;;;;;;;26.78;100.00;98694.63;5158301;27;20335;-63
2023/09/01 07:28:25;;;;;;;2.63;2.42;;;;;;;27.02;100.00;98698.06;5158336;27;20487;-65
2023/09/01 07:30:51;;;;;;;3.33;3.03;;;;;;;26.84;100.00;98699.09;5158361;27;20059;-60
2023/09/01 07:33:17;;;;;;;6.00;3.40;;;;;;;26.90;100.00;98687.94;5158374;27;20157;-63
2023/09/01 07:35:47;;;;;;;2.80;2.40;;;;;;;27.05;100.00;98704.75;5158724;27;20137;-64
2023/09/01 07:38:13;;;;;;;2.65;2.20;;;;;;;27.15;100.00;98706.22;5158328;27;20133;-59
2023/09/01 07:40:40;;;;;;;4.50;2.85;;;;;;;27.61;98.63;98711.19;5158713;27;20057;-65
2023/09/01 07:43:07;;;;;;;5.32;3.03;;;;;;;27.27;100.00;98707.94;5158178;27;20066;-61
2023/09/01 07:45:33;;;;;;;2.67;2.47;;;;;;;27.65;100.00;98709.72;5158147;27;20057;-62
2023/09/01 07:47:59;;;;;;;2.50;2.30;;;;;;;28.24;99.58;98714.25;5158458;27;20042;-61
2023/09/01 07:50:29;;;;;;;3.00;2.47;;;;;;;28.43;97.09;98720.38;5158275;27;20051;-65
2023/09/01 07:52:55;;;;;;;5.78;3.08;;;;;;;28.38;95.89;98723.88;5158237;27;20046;-62
2023/09/01 07:55:21;;;;;;;2.88;2.67;;;;;;;28.61;91.06;98734.13;5158059;27;20078;-62
2023/09/01 07:57:48;;;;;;;2.85;2.60;;;;;;;28.09;95.11;98731.28;5158244;27;20145;-64
2023/09/01 08:00:14;;;;;;;3.92;3.08;;;;;;;28.17;93.96;98734.44;5158028;27;20047;-63
2023/09/01 08:02:40;;;;;;;3.95;3.10;;;;;;;28.79;89.52;98735.81;5158164;27;20042;-63
2023/09/01 08:05:07;;;;;;;4.45;2.85;;;;;;;28.74;88.01;98736.53;5157840;27;20058;-65
2023/09/01 08:07:33;;;;;;;3.10;2.80;;;;;;;29.08;83.06;98748.13;5157766;27;20146;-63
2023/09/01 08:09:58;;;;;;;2.63;2.42;;;;;;;28.75;80.57;98746.53;5157847;27;20046;-65
2023/09/01 08:12:27;;;;;;;3.20;2.90;;;;;;;28.61;82.90;98748.22;5158164;27;20043;-65
2023/09/01 08:14:53;;;;;;;4.15;2.72;;;;;;;28.20;84.20;98739.06;5157946;27;20051;-65
2023/09/01 08:17:20;;;;;;;3.90;2.53;;;;;;;27.90;86.00;98744.88;5157924;27;20050;-66
2023/09/01 08:19:47;;;;;;;2.78;2.50;;;;;;;27.97;87.28;98745.72;5158012;27;20057;-62
2023/09/01 08:22:13;;;;;;;3.63;2.75;;;;;;;27.27;94.75;98738.91;5157759;27;20042;-62
2023/09/01 08:24:39;;;;;;;3.13;2.72;;;;;;;27.85;91.50;98739.94;5158733;27;20412;-66
2023/09/01 08:27:06;;;;;;;3.88;2.55;;;;;;;27.18;97.03;98739.00;5161559;27;20057;-64
2023/09/01 08:29:32;;;;;;;6.55;3.70;;;;;;;26.31;100.00;98732.91;5161586;27;20047;-64
2023/09/01 08:32:01;;;;;;;7.28;2.90;;;;;;;26.34;100.00;98732.72;5161016;27;20142;-61
2023/09/01 08:34:27;;;;;;;4.93;2.90;;;;;;;26.43;100.00;98737.47;5161480;27;20085;-65
2023/09/01 08:36:53;;;;;;;3.70;3.03;;;;;;;26.10;100.00;98724.34;5161247;27;20146;-62
2023/09/01 08:39:19;;;;;;;7.65;3.03;;;;;;;26.10;100.00;98721.53;5161637;27;20051;-61
2023/09/01 08:41:45;;;;;;;5.13;3.00;;;;;;;25.85;100.00;98725.63;5161044;27;20054;-63
2023/09/01 08:44:14;;;;;;;3.20;3.00;;;;;;;25.71;100.00;98717.94;5160882;27;20051;-64
2023/09/01 08:46:41;;;;;;;2.58;2.38;;;;;;;25.70;100.00;98722.00;5160871;27;20055;-67
2023/09/01 08:49:08;;;;;;;4.82;2.60;;;;;;;25.97;100.00;98719.00;5160904;27;20391;-67
2023/09/01 08:51:40;;;;;;;3.40;2.35;;;;;;;26.42;100.00;98730.28;5161218;27;20130;-66
2023/09/01 08:54:07;;;;;;;4.50;3.17;;;;;;;26.47;100.00;98722.00;5161041;27;20068;-64
2023/09/01 08:56:34;;;;;;;6.70;3.00;;;;;;;26.68;100.00;98724.91;5161258;27;20197;-65
2023/09/01 08:59:00;;;;;;;3.53;3.22;;;;;;;27.66;100.00;98718.97;5160878;27;20118;-66
2023/09/01 09:01:27;;;;;;;4.50;3.33;;;;;;;27.51;99.36;98735.91;5161203;27;20051;-62
2023/09/01 09:03:53;;;;;;;2.88;2.67;;;;;;;27.47;98.13;98737.38;5160625;27;20051;-64
2023/09/01 09:06:32;;;;;;;3.40;2.95;;;;;;;26.90;94.90;98742.16;5160938;27;20059;-66
2023/09/01 09:09:05;;;;;;;3.78;2.92;;;;;;;26.77;100.00;98735.28;5160392;27;20095;-64
2023/09/01 09:11:31;;;;;;;6.88;2.83;;;;;;;26.35;100.00;98741.91;5160668;27;20315;-65
2023/09/01 09:13:57;;;;;;;3.55;3.25;;;;;;;26.23;100.00;98736.09;5160770;27;20381;-66
2023/09/01 09:16:23;;;;;;;4.90;3.20;;;;;;;25.92;100.00;98727.31;5160533;27;20115;-64
2023/09/01 09:18:49;;;;;;;9.15;3.47;;;;;;;25.73;100.00;98727.44;5160850;27;20141;-64
2023/09/01 09:21:23;;;;;;;6.40;4.10;;;;;;;25.51;100.00;98738.19;5160670;27;20042;-67
2023/09/01 09:23:50;;;;;;;5.60;3.53;;;;;;;25.64;100.00;98744.31;5160961;27;20114;-63
2023/09/01 09:26:16;;;;;;;4.70;2.67;;;;;;;25.21;100.00;98740.84;5160666;27;20055;-62
2023/09/01 09:28:44;;;;;;;5.30;2.50;;;;;;;25.38;100.00;98741.22;5160758;27;20111;-63
2023/09/01 09:31:10;;;;;;;3.97;3.67;;;;;;;25.43;100.00;98734.97;5160500;27;20103;-63
2023/09/01 09:33:38;;;;;;;6.65;5.35;;;;;;;25.35;100.00;98739.34;5160524;27;20502;-65
2023/09/01 09:36:04;;;;;;;5.18;3.58;;;;;;;25.72;100.00;98733.50;5160975;27;20047;-69
2023/09/01 09:38:40;;;;;;;3.20;2.90;;;;;;;25.98;100.00;98728.19;5162812;27;20051;-64
2023/09/01 09:41:07;;;;;;;3.75;2.10;;;;;;;25.73;100.00;98746.31;5160655;27;20046;-61
2023/09/01 09:43:43;;;;;;;3.28;2.53;;;;;;;26.12;96.05;98741.50;5160194;27;20433;-65
2023/09/01 09:46:09;;;;;;;2.83;2.60;;;;;;;26.41;92.33;98751.22;5160114;27;20050;-64
2023/09/01 09:48:35;;;;;;;2.75;2.47;;;;;;;26.32;83.10;98756.94;5159710;27;20085;-64
2023/09/01 09:51:04;;;;;;;3.08;2.47;;;;;;;26.76;82.42;98759.81;5160181;27;20137;-61
2023/09/01 09:53:33;;;;;;;5.03;2.42;;;;;;;27.02;82.58;98750.75;5159679;27;20498;-60
2023/09/01 09:56:13;;;;;;;3.03;2.75;;;;;;;27.44;80.29;98758.84;5160231;27;20487;-62
2023/09/01 09:58:40;;;;;;;4.28;2.30;;;;;;;27.31;84.50;98747.91;5159779;27;20060;-68
2023/09/01 10:01:13;;;;;;;2.28;2.10;;;;;;;27.10;81.58;98749.88;5160175;27;20138;-63
2023/09/01 10:03:41;;;;;;;2.47;2.28;;;;;;;26.97;83.57;98753.00;5160184;27;20062;-63
2023/09/01 10:06:08;;;;;;;2.35;2.15;;;;;;;27.06;85.07;98756.94;5159766;27;20343;-67
2023/09/01 10:08:36;;;;;;;4.78;2.70;;;;;;;27.30;78.03;98762.47;5159960;27;20043;-65
2023/09/01 10:11:03;;;;;;;3.58;2.20;;;;;;;27.34;80.63;98769.44;5159574;27;20092;-67
2023/09/01 10:13:30;;;;;;;4.18;3.03;;;;;;;27.58;74.33;98765.69;5160033;27;20089;-62
2023/09/01 10:15:58;;;;;;;2.78;2.10;;;;;;;27.43;72.46;98777.00;5159528;27;20142;-63
2023/09/01 10:18:24;;;;;;;2.88;2.40;;;;;;;26.95;73.26;98778.00;5159936;27;20058;-65
2023/09/01 10:20:50;;;;;;;4.25;2.70;;;;;;;26.58;81.01;98772.00;5159538;27;20046;-64
2023/09/01 10:23:16;;;;;;;2.92;2.40;;;;;;;25.80;89.90;98771.25;5159594;27;20046;-63
2023/09/01 10:26:12;;;;;;;3.10;2.55;;;;;;;25.45;100.00;98757.69;5159227;27;20492;-59
2023/09/01 10:28:53;;;;;;;5.55;2.75;;;;;;;26.05;87.03;98765.09;5159471;27;20050;-59
2023/09/01 10:31:20;;;;;;;4.80;2.50;;;;;;;26.61;84.14;98770.28;5159522;27;20464;-60
2023/09/01 10:33:46;;;;;;;2.90;2.40;;;;;;;26.83;80.89;98764.28;5159303;27;20115;-62
2023/09/01 10:36:13;;;;;;;5.88;2.85;;;;;;;26.55;90.23;98766.59;5159611;27;20368;-64
2023/09/01 10:38:40;;;;;;;2.35;2.15;;;;;;;26.73;78.70;98778.41;5159093;27;20289;-61
2023/09/01 10:41:06;;;;;;;5.38;2.22;;;;;;;25.99;84.75;98766.25;5159386;27;20046;-61
2023/09/01 10:43:55;;;;;;;2.47;2.28;;;;;;;25.75;84.16;98766.25;5159299;27;20061;-60
2023/09/01 10:46:26;;;;;;;3.03;2.47;;;;;;;26.26;81.98;98776.50;5159152;27;20123;-62
2023/09/01 10:48:53;;;;;;;1.90;1.80;;;;;;;26.05;81.83;98764.34;5158929;27;20316;-58
2023/09/01 10:51:20;;;;;;;4.32;1.80;;;;;;;25.57;78.87;98775.56;5158869;27;20054;-61
2023/09/01 10:53:46;;;;;;;4.10;2.28;;;;;;;25.82;79.41;98777.13;5159214;27;20392;-59
2023/09/01 10:56:14;;;;;;;5.85;2.90;;;;;;;25.99;80.37;98771.88;5158898;27;20114;-61
2023/09/01 10:58:46;;;;;;;2.40;2.20;;;;;;;25.95;80.38;98765.66;5159207;27;20050;-61
2023/09/01 11:01:37;;;;;;;4.07;2.17;;;;;;;26.21;79.50;98774.34;5158598;27;20046;-62
2023/09/01 11:04:33;;;;;;;4.45;2.47;;;;;;;25.99;78.30;98771.88;5143472;27;20047;-63
2023/09/01 11:07:03;;;;;;;2.90;1.90;;;;;;;26.00;62.84;98773.44;5095646;28;20135;-59
2023/09/01 11:09:46;;;;;;;2.17;1.80;;;;;;;26.14;65.28;98774.72;5145387;27;20046;-61
2023/09/01 11:12:13;;;;;;;2.15;1.95;;;;;;;25.52;71.60;98768.56;5158981;27;20050;-59
2023/09/01 11:14:53;;;;;;;2.10;2.00;;;;;;;25.30;68.44;98777.25;5158531;27;20053;-60
2023/09/01 11:17:38;;;;;;;1.98;1.88;;;;;;;25.15;69.90;98773.56;5158616;27;20078;-62
2023/09/01 11:20:06;;;;;;;3.83;2.10;;;;;;;24.84;77.53;98765.41;5158657;27;20046;-63